Time;durP1;ratioP1;P1;durP2;ratioP2;P2;SDS_P1;SDS_P2;PMS_P1;PMS_P2;Temp;Humidity;BMP_temperature;BMP_pressure;BME280_temperature;BME280_humidity;BME280_pressure;Samples;Min_cycle;Max_cycle;Signal;HPM_P1;HPM_P2
2024/03/10 00:01:37;;;;;;;57.50;34.40;;;;;;;0.42;84.94;100489.30;87059;272;137643;-72
2024/03/10 00:03:40;;;;;;;56.80;33.40;;;;;;;0.43;84.91;100491.84;87177;272;22540;-71
2024/03/10 00:05:42;;;;;;;54.20;33.70;;;;;;;0.42;85.12;100492.60;87221;268;135866;-73
2024/03/10 00:07:46;;;;;;;47.50;32.30;;;;;;;0.39;85.14;100486.14;87118;273;22653;-72
2024/03/10 00:09:49;;;;;;;50.50;31.20;;;;;;;0.36;85.36;100489.17;87166;264;136506;-72
2024/03/10 00:11:52;;;;;;;51.60;31.80;;;;;;;0.33;85.34;100486.80;87149;272;22976;-71
2024/03/10 00:13:55;;;;;;;51.70;33.80;;;;;;;0.28;85.92;100487.55;86885;274;135220;-72
2024/03/10 00:15:58;;;;;;;53.00;31.60;;;;;;;0.25;86.28;100488.16;87197;273;25082;-71
2024/03/10 00:18:00;;;;;;;49.00;34.00;;;;;;;0.23;86.45;100490.95;86997;273;135742;-71
2024/03/10 00:20:03;;;;;;;50.20;33.70;;;;;;;0.19;86.76;100489.26;87089;278;24151;-71
2024/03/10 00:22:05;;;;;;;53.20;32.60;;;;;;;0.17;87.16;100487.35;87270;273;25092;-72
2024/03/10 00:24:07;;;;;;;56.70;33.00;;;;;;;0.12;87.30;100484.02;87020;281;136075;-72
2024/03/10 00:26:09;;;;;;;50.90;31.90;;;;;;;0.09;87.44;100485.20;86912;271;22604;-71
2024/03/10 00:28:11;;;;;;;46.90;32.40;;;;;;;0.05;87.83;100485.08;87004;273;135968;-71
2024/03/10 00:30:13;;;;;;;46.60;31.20;;;;;;;0.04;87.91;100482.40;87087;269;23737;-70
2024/03/10 00:32:16;;;;;;;54.60;31.20;;;;;;;0.05;87.84;100482.16;86704;269;136949;-72
2024/03/10 00:34:18;;;;;;;49.60;31.40;;;;;;;0.06;87.97;100482.61;86960;274;25131;-71
2024/03/10 00:36:20;;;;;;;50.10;31.10;;;;;;;0.06;88.14;100479.63;86884;269;136780;-72
2024/03/10 00:38:23;;;;;;;44.90;30.30;;;;;;;0.06;88.19;100475.08;87247;273;22613;-71
2024/03/10 00:40:26;;;;;;;47.30;31.40;;;;;;;0.06;88.40;100472.11;86995;280;136741;-71
2024/03/10 00:42:29;;;;;;;48.50;31.10;;;;;;;0.06;88.43;100475.92;87093;273;22561;-71
2024/03/10 00:44:32;;;;;;;49.50;32.50;;;;;;;0.08;88.53;100469.52;87015;269;136410;-71
2024/03/10 00:46:33;;;;;;;61.20;36.60;;;;;;;0.07;88.78;100469.02;87034;269;23979;-73
2024/03/10 00:48:35;;;;;;;58.50;36.50;;;;;;;0.06;89.06;100473.48;86931;273;136052;-71
2024/03/10 00:50:37;;;;;;;58.00;35.10;;;;;;;0.04;89.41;100474.19;87127;273;25114;-72
2024/03/10 00:52:40;;;;;;;58.20;36.10;;;;;;;-0.01;89.78;100472.95;87130;281;136466;-72
2024/03/10 00:54:43;;;;;;;54.10;36.00;;;;;;;-0.02;90.14;100469.59;87268;273;22577;-72
2024/03/10 00:56:45;;;;;;;60.90;37.60;;;;;;;-0.05;90.48;100469.75;86963;273;136258;-72
2024/03/10 00:58:46;;;;;;;59.90;36.60;;;;;;;-0.08;91.15;100467.77;86996;274;23691;-72
2024/03/10 01:00:49;;;;;;;59.20;39.60;;;;;;;-0.11;91.51;100470.41;87005;273;138280;-72
2024/03/10 01:02:51;;;;;;;56.30;37.70;;;;;;;-0.13;91.70;100464.27;87177;274;25128;-71
2024/03/10 01:04:53;;;;;;;63.90;38.00;;;;;;;-0.14;92.08;100463.19;87110;280;136843;-72
2024/03/10 01:06:56;;;;;;;60.00;37.30;;;;;;;-0.14;92.26;100459.86;87148;273;23501;-71
2024/03/10 01:08:59;;;;;;;59.40;38.30;;;;;;;-0.14;92.15;100457.05;87283;277;137832;-72
2024/03/10 01:11:01;;;;;;;54.90;36.00;;;;;;;-0.14;92.47;100454.92;87116;274;24408;-74
2024/03/10 01:13:04;;;;;;;60.10;38.40;;;;;;;-0.13;92.99;100454.83;87070;273;136828;-72
2024/03/10 01:15:07;;;;;;;58.30;37.20;;;;;;;-0.12;93.42;100452.67;87302;277;22572;-72
2024/03/10 01:17:10;;;;;;;60.90;39.00;;;;;;;-0.11;94.40;100454.70;87072;277;137073;-72
2024/03/10 01:19:13;;;;;;;52.50;34.80;;;;;;;-0.10;95.19;100451.45;87215;278;25210;-72
2024/03/10 01:21:16;;;;;;;55.60;36.70;;;;;;;-0.07;95.78;100449.53;87017;281;136724;-71
2024/03/10 01:23:19;;;;;;;54.80;35.20;;;;;;;-0.06;97.45;100448.73;86927;282;24001;-73
2024/03/10 01:25:21;;;;;;;54.40;36.00;;;;;;;-0.01;99.00;100446.92;87206;273;136632;-72
2024/03/10 01:27:23;;;;;;;56.20;38.40;;;;;;;0.02;99.52;100444.44;87158;269;23675;-72
2024/03/10 01:29:25;;;;;;;54.30;35.40;;;;;;;0.04;99.78;100443.44;87038;273;135906;-72
2024/03/10 01:31:27;;;;;;;53.20;36.70;;;;;;;0.05;100.00;100443.16;87037;282;25239;-71
2024/03/10 01:33:29;;;;;;;61.40;38.30;;;;;;;0.08;100.00;100441.70;87100;277;137005;-72
2024/03/10 01:35:32;;;;;;;57.70;37.10;;;;;;;0.10;100.00;100434.19;87474;271;25092;-70
2024/03/10 01:37:35;;;;;;;52.90;35.90;;;;;;;0.13;100.00;100437.80;86899;275;137888;-71
2024/03/10 01:39:37;;;;;;;55.50;36.00;;;;;;;0.19;99.86;100434.92;87468;281;22574;-74
2024/03/10 01:41:39;;;;;;;53.70;36.00;;;;;;;0.22;99.70;100430.67;88266;270;136402;-72
2024/03/10 01:43:41;;;;;;;55.60;36.20;;;;;;;0.27;99.16;100432.41;87873;279;25095;-71
2024/03/10 01:45:42;;;;;;;47.80;32.10;;;;;;;0.32;98.75;100430.98;87538;276;136590;-73
2024/03/10 01:47:47;;;;;;;55.30;35.30;;;;;;;0.36;98.51;100428.02;87326;281;23976;-73
2024/03/10 01:49:49;;;;;;;60.10;37.30;;;;;;;0.35;98.03;100425.27;87100;277;135992;-73
2024/03/10 01:51:52;;;;;;;53.40;37.50;;;;;;;0.34;97.90;100423.66;87150;281;25115;-72
2024/03/10 01:53:55;;;;;;;58.40;38.60;;;;;;;0.30;97.54;100419.07;87160;269;136174;-74
2024/03/10 01:55:59;;;;;;;63.40;39.00;;;;;;;0.27;97.49;100419.66;87237;280;22577;-70
2024/03/10 01:58:01;;;;;;;54.20;36.20;;;;;;;0.25;97.64;100417.35;87073;274;136290;-71
2024/03/10 02:00:06;;;;;;;54.90;37.30;;;;;;;0.22;97.63;100419.98;87311;269;22572;-73
2024/03/10 02:02:12;;;;;;;55.90;37.70;;;;;;;0.18;98.18;100419.25;87114;282;22563;-69
2024/03/10 02:04:14;;;;;;;56.10;37.60;;;;;;;0.14;98.30;100416.81;87127;273;136451;-72
2024/03/10 02:06:16;;;;;;;56.70;38.30;;;;;;;0.10;98.46;100415.04;87321;269;25083;-73
2024/03/10 02:08:18;;;;;;;57.70;38.50;;;;;;;0.07;98.40;100413.70;87042;269;136857;-70
2024/03/10 02:10:21;;;;;;;52.50;34.10;;;;;;;0.05;98.69;100413.82;87269;277;25165;-72
2024/03/10 02:12:23;;;;;;;51.70;35.40;;;;;;;0.04;99.19;100408.46;86822;266;136836;-71
2024/03/10 02:14:26;;;;;;;51.70;33.70;;;;;;;0.06;99.09;100406.20;87059;280;22581;-71
2024/03/10 02:16:28;;;;;;;56.00;36.90;;;;;;;0.07;99.60;100407.02;86919;277;136898;-71
2024/03/10 02:18:32;;;;;;;51.90;34.80;;;;;;;0.07;99.65;100405.66;87312;274;22570;-73
2024/03/10 02:20:37;;;;;;;50.50;34.60;;;;;;;0.07;99.87;100402.48;86943;281;137107;-71
2024/03/10 02:22:41;;;;;;;48.80;34.30;;;;;;;0.08;99.89;100402.80;87087;273;22668;-72
2024/03/10 02:24:47;;;;;;;53.00;33.40;;;;;;;0.07;99.92;100401.11;87131;270;136199;-71
2024/03/10 02:26:50;;;;;;;47.10;34.80;;;;;;;0.04;100.00;100398.56;86974;282;22582;-69
2024/03/10 02:29:14;;;;;;;50.90;35.60;;;;;;;0.01;100.00;100397.39;87045;277;137659;-72
2024/03/10 02:48:00;;;;;;;38.60;25.30;;;;;;;0.26;99.93;100401.39;87094;273;22574;-72
2024/03/10 02:50:05;;;;;;;40.00;26.40;;;;;;;0.29;99.76;100400.97;87005;273;24039;-73
2024/03/10 02:52:08;;;;;;;34.60;23.70;;;;;;;0.29;99.85;100398.86;87061;274;137617;-73
2024/03/10 02:54:10;;;;;;;45.50;27.30;;;;;;;0.28;99.47;100396.80;87011;273;22646;-72
2024/03/10 02:56:13;;;;;;;38.50;25.70;;;;;;;0.28;99.24;100396.30;86936;273;136398;-72
2024/03/10 02:58:15;;;;;;;45.30;28.40;;;;;;;0.27;99.18;100394.96;87129;277;22926;-72
2024/03/10 03:00:18;;;;;;;44.00;29.20;;;;;;;0.28;98.94;100396.11;86920;273;136383;-72
2024/03/10 03:02:22;;;;;;;41.90;29.30;;;;;;;0.26;98.71;100392.45;87136;273;22585;-72
2024/03/10 03:04:28;;;;;;;43.30;29.20;;;;;;;0.24;98.74;100392.76;87087;280;137704;-73
2024/03/10 03:06:30;;;;;;;43.40;28.10;;;;;;;0.23;98.54;100390.91;87206;277;22575;-70
2024/03/10 03:08:32;;;;;;;40.40;28.40;;;;;;;0.25;98.38;100390.98;87051;273;136919;-71
2024/03/10 03:10:34;;;;;;;40.50;28.10;;;;;;;0.27;98.20;100387.88;87004;273;25256;-70
2024/03/10 03:12:36;;;;;;;43.40;28.20;;;;;;;0.28;98.25;100385.96;87064;273;137349;-72
2024/03/10 03:14:41;;;;;;;41.10;28.30;;;;;;;0.31;98.18;100387.36;87083;278;24116;-72
2024/03/10 03:16:42;;;;;;;42.20;28.10;;;;;;;0.33;98.07;100388.23;87234;273;137157;-73
2024/03/10 03:18:44;;;;;;;43.70;27.90;;;;;;;0.34;98.06;100383.05;87003;274;22575;-72
2024/03/10 03:20:47;;;;;;;35.20;25.50;;;;;;;0.36;98.04;100381.35;86949;273;137210;-72
2024/03/10 03:22:49;;;;;;;39.50;25.70;;;;;;;0.37;98.25;100379.15;87027;273;22538;-72
2024/03/10 03:24:51;;;;;;;36.80;26.00;;;;;;;0.35;98.58;100375.14;87261;269;137708;-71
2024/03/10 03:26:53;;;;;;;38.90;27.60;;;;;;;0.30;99.08;100375.15;87235;277;25134;-71
2024/03/10 03:28:55;;;;;;;43.90;28.40;;;;;;;0.28;99.13;100373.12;86925;274;136371;-71
2024/03/10 03:30:57;;;;;;;42.80;29.30;;;;;;;0.25;99.22;100370.83;87346;267;22720;-72
2024/03/10 03:32:59;;;;;;;45.00;29.20;;;;;;;0.24;99.28;100366.23;86922;271;135790;-74
2024/03/10 03:35:02;;;;;;;41.10;28.20;;;;;;;0.21;99.17;100361.18;87124;267;26006;-71
2024/03/10 03:37:04;;;;;;;41.90;26.20;;;;;;;0.21;99.79;100364.56;87137;273;136679;-73
2024/03/10 03:39:06;;;;;;;33.60;25.30;;;;;;;0.23;99.90;100365.61;87285;269;22616;-72
2024/03/10 03:41:07;;;;;;;40.70;26.40;;;;;;;0.25;99.80;100364.73;87095;271;136915;-73
2024/03/10 03:43:10;;;;;;;39.90;25.70;;;;;;;0.28;99.82;100362.95;87306;279;22634;-74
2024/03/10 03:45:12;;;;;;;34.90;25.80;;;;;;;0.32;99.69;100365.42;87214;278;136877;-71
2024/03/10 03:47:15;;;;;;;34.30;24.00;;;;;;;0.35;99.69;100355.89;87226;271;22544;-71
2024/03/10 03:49:17;;;;;;;36.40;25.40;;;;;;;0.38;99.26;100352.17;87271;263;137076;-72
2024/03/10 03:51:19;;;;;;;35.90;23.40;;;;;;;0.40;99.20;100350.45;87277;270;22574;-73
2024/03/10 03:53:21;;;;;;;37.80;24.60;;;;;;;0.46;98.82;100356.04;87136;269;136879;-73
2024/03/10 03:55:23;;;;;;;35.70;22.40;;;;;;;0.55;98.21;100352.55;87181;278;22960;-72
2024/03/10 03:57:25;;;;;;;36.30;26.00;;;;;;;0.53;98.31;100350.06;87070;270;135997;-71
2024/03/10 03:59:29;;;;;;;32.50;23.70;;;;;;;0.54;98.16;100350.52;87241;269;22538;-72
2024/03/10 04:01:31;;;;;;;36.70;24.60;;;;;;;0.54;98.16;100348.94;87129;270;137449;-73
2024/03/10 04:03:33;;;;;;;33.80;23.70;;;;;;;0.52;97.92;100347.39;87189;269;25134;-72
2024/03/10 04:05:35;;;;;;;36.30;25.00;;;;;;;0.50;97.84;100346.45;87213;274;136277;-73
2024/03/10 04:07:37;;;;;;;37.40;25.80;;;;;;;0.49;98.04;100348.36;87351;270;25182;-72
2024/03/10 04:09:38;;;;;;;40.30;25.20;;;;;;;0.46;98.03;100350.82;87156;269;136516;-71
2024/03/10 04:11:40;;;;;;;37.60;25.20;;;;;;;0.45;97.71;100349.36;87280;266;23880;-72
2024/03/10 04:13:42;;;;;;;41.80;26.20;;;;;;;0.46;97.76;100345.93;87853;271;138256;-73
2024/03/10 04:15:44;;;;;;;33.00;24.10;;;;;;;0.48;97.53;100346.67;87257;269;25259;-74
2024/03/10 04:17:46;;;;;;;37.10;25.10;;;;;;;0.50;97.35;100351.38;87058;273;136515;-73
2024/03/10 04:19:49;;;;;;;35.30;23.90;;;;;;;0.52;97.41;100353.17;87209;276;26367;-72
2024/03/10 04:21:51;;;;;;;40.50;26.30;;;;;;;0.55;97.42;100354.97;87206;271;136876;-72
2024/03/10 04:23:53;;;;;;;34.40;24.40;;;;;;;0.60;97.41;100357.25;87406;274;26172;-72
2024/03/10 04:25:55;;;;;;;37.00;25.30;;;;;;;0.63;97.23;100357.34;87171;266;136737;-73
2024/03/10 04:27:57;;;;;;;34.60;26.10;;;;;;;0.67;97.06;100359.30;87378;269;25243;-72
2024/03/10 04:29:59;;;;;;;36.20;25.10;;;;;;;0.68;97.08;100359.08;87291;271;136033;-73
2024/03/10 04:32:01;;;;;;;42.70;26.90;;;;;;;0.67;96.87;100358.93;87394;278;22749;-74
2024/03/10 04:34:04;;;;;;;41.00;25.00;;;;;;;0.67;96.72;100360.68;87251;279;22558;-76
2024/03/10 04:36:06;;;;;;;33.80;23.60;;;;;;;0.68;96.52;100360.46;87008;280;137393;-70
2024/03/10 04:38:08;;;;;;;32.60;23.90;;;;;;;0.67;96.21;100363.00;87391;263;24001;-73
2024/03/10 04:40:12;;;;;;;34.60;25.40;;;;;;;0.62;96.24;100368.63;87275;267;136498;-72
2024/03/10 04:42:15;;;;;;;33.10;24.60;;;;;;;0.62;96.56;100374.98;87500;267;22574;-71
2024/03/10 04:44:17;;;;;;;37.20;26.60;;;;;;;0.62;96.86;100374.77;87101;273;138278;-73
2024/03/10 04:46:21;;;;;;;35.20;25.90;;;;;;;0.64;96.75;100374.77;87442;271;26438;-75
2024/03/10 04:48:24;;;;;;;38.00;24.40;;;;;;;0.70;96.59;100375.52;87099;268;137767;-73
2024/03/10 04:50:26;;;;;;;36.70;24.20;;;;;;;0.77;96.65;100378.05;87437;275;25760;-73
2024/03/10 04:52:28;;;;;;;34.60;24.20;;;;;;;0.89;96.84;100378.53;87293;278;137081;-75
2024/03/10 04:54:32;;;;;;;31.90;22.60;;;;;;;1.15;97.69;100383.39;87173;268;23997;-71
2024/03/10 04:56:35;;;;;;;32.30;23.20;;;;;;;1.53;97.52;100381.61;87170;267;137104;-72
2024/03/10 04:58:37;;;;;;;32.30;23.10;;;;;;;1.99;95.96;100377.97;87270;271;26156;-74
2024/03/10 05:00:39;;;;;;;37.50;25.70;;;;;;;2.43;93.88;100376.91;87277;267;136281;-75
2024/03/10 05:02:41;;;;;;;38.20;25.70;;;;;;;2.90;92.01;100378.40;87163;267;25218;-69
2024/03/10 05:04:46;;;;;;;35.60;24.80;;;;;;;3.40;89.37;100376.33;87079;272;135788;-72
2024/03/10 05:06:48;;;;;;;;;;;;;;;3.88;85.18;100374.73;87128;265;22496;-72
2024/03/10 05:08:50;;;;;;;39.30;24.60;;;;;;;4.26;83.04;100372.94;86981;272;123960;-72
2024/03/10 05:10:52;;;;;;;44.80;25.40;;;;;;;4.67;80.73;100376.90;87029;271;22529;-74
2024/03/10 05:12:54;;;;;;;33.80;23.80;;;;;;;5.10;78.09;100382.34;87007;278;136084;-70
2024/03/10 05:14:56;;;;;;;35.40;24.80;;;;;;;5.52;75.22;100383.10;87015;270;22559;-72
2024/03/10 05:17:00;;;;;;;34.80;25.10;;;;;;;5.92;72.51;100378.54;86940;274;136209;-73
2024/03/10 05:19:03;;;;;;;33.40;24.40;;;;;;;6.27;69.56;100379.23;86935;271;23880;-72
2024/03/10 05:21:06;;;;;;;29.10;23.30;;;;;;;6.58;67.66;100383.04;87021;270;140280;-72
2024/03/10 05:23:08;;;;;;;32.30;23.40;;;;;;;6.85;66.35;100384.15;87171;270;25076;-74
2024/03/10 05:25:11;;;;;;;32.30;22.60;;;;;;;7.09;64.43;100390.36;89613;268;137797;-73
2024/03/10 05:27:15;;;;;;;30.50;22.50;;;;;;;7.29;62.53;100391.13;89977;274;22435;-73
2024/03/10 05:29:17;;;;;;;30.30;22.50;;;;;;;7.37;61.49;100393.39;87568;274;136366;-73
2024/03/10 05:31:32;;;;;;;29.90;24.10;;;;;;;7.52;61.48;100390.16;87163;274;24214;-75
2024/03/10 05:33:34;;;;;;;28.90;23.30;;;;;;;7.83;59.84;100394.96;87113;267;137493;-73
2024/03/10 05:35:37;;;;;;;26.60;21.10;;;;;;;8.13;59.38;100394.28;87015;275;22599;-72
2024/03/10 05:37:41;;;;;;;27.60;22.10;;;;;;;8.50;58.16;100394.03;87279;278;137389;-74
2024/03/10 05:39:43;;;;;;;29.60;22.90;;;;;;;8.89;56.30;100391.57;87353;274;25079;-75
2024/03/10 05:41:44;;;;;;;31.90;23.60;;;;;;;9.24;54.78;100392.88;87104;267;136515;-72
2024/03/10 05:43:47;;;;;;;28.50;21.40;;;;;;;9.55;53.73;100387.72;87071;271;22572;-75
2024/03/10 05:45:49;;;;;;;27.70;21.70;;;;;;;9.81;51.63;100387.45;88539;270;136401;-73
2024/03/10 05:47:51;;;;;;;29.70;21.60;;;;;;;9.99;50.92;100380.87;86888;272;22633;-72
2024/03/10 05:49:55;;;;;;;31.30;20.20;;;;;;;10.17;49.55;100379.14;86906;279;136450;-71
2024/03/10 05:51:57;;;;;;;28.60;20.80;;;;;;;10.16;47.99;100375.16;87737;276;23795;-73
2024/03/10 05:53:59;;;;;;;31.10;20.40;;;;;;;10.07;48.78;100369.64;87295;267;136120;-72
2024/03/10 05:56:01;;;;;;;28.00;21.90;;;;;;;10.12;48.21;100369.82;86875;279;23854;-73
2024/03/10 05:58:03;;;;;;;28.80;21.70;;;;;;;10.18;47.58;100371.05;86765;280;137354;-73
2024/03/10 06:00:13;;;;;;;31.70;23.40;;;;;;;10.31;47.55;100372.53;86990;275;138000;-72
2024/03/10 06:02:16;;;;;;;33.00;23.60;;;;;;;10.59;46.62;100372.64;86953;265;25217;-75
2024/03/10 06:04:19;;;;;;;28.30;21.80;;;;;;;10.71;45.91;100373.27;87032;280;137108;-73
2024/03/10 06:06:21;;;;;;;25.60;21.70;;;;;;;10.81;45.78;100365.14;87316;274;24100;-75
2024/03/10 06:08:23;;;;;;;26.70;21.10;;;;;;;11.02;45.44;100362.36;86987;266;136512;-73
2024/03/10 06:10:26;;;;;;;26.10;22.90;;;;;;;11.28;44.99;100361.60;87911;266;25244;-73
2024/03/10 06:12:29;;;;;;;28.10;21.20;;;;;;;11.64;44.53;100359.30;87116;278;136734;-73
2024/03/10 06:14:30;;;;;;;27.00;21.50;;;;;;;11.97;43.28;100358.16;87172;275;22571;-73
2024/03/10 06:16:34;;;;;;;27.60;22.30;;;;;;;12.26;42.87;100355.81;87390;270;136460;-75
2024/03/10 06:25:37;;;;;;;24.00;20.10;;;;;;;13.32;39.58;100368.84;87067;278;137594;-77
2024/03/10 06:27:42;;;;;;;24.30;18.30;;;;;;;13.34;39.34;100369.34;87514;271;25242;-74
2024/03/10 06:29:44;;;;;;;23.40;17.90;;;;;;;13.23;39.08;100368.05;87514;272;137587;-75
2024/03/10 06:31:46;;;;;;;23.60;17.80;;;;;;;13.10;39.22;100371.54;87595;272;23220;-79
2024/03/10 06:33:50;;;;;;;23.90;18.10;;;;;;;12.95;39.31;100374.76;87538;271;138016;-76
2024/03/10 06:35:53;;;;;;;25.20;17.40;;;;;;;12.66;39.57;100371.34;87013;275;23574;-75
2024/03/10 06:37:56;;;;;;;25.20;18.70;;;;;;;12.06;39.57;100375.46;87269;267;136115;-76
2024/03/10 06:39:58;;;;;;;22.40;18.20;;;;;;;10.99;41.23;100379.98;88032;267;22514;-75
2024/03/10 06:42:01;;;;;;;25.00;18.40;;;;;;;9.98;43.23;100385.77;87021;267;136569;-75
2024/03/10 06:44:06;;;;;;;22.30;18.20;;;;;;;9.29;45.15;100388.66;87000;271;138330;-75
2024/03/10 06:46:09;;;;;;;25.20;20.70;;;;;;;8.72;46.76;100385.06;87667;268;23234;-76
2024/03/10 06:48:13;;;;;;;27.60;21.40;;;;;;;8.20;48.02;100385.38;87732;271;137871;-74
2024/03/10 06:50:15;;;;;;;20.00;17.70;;;;;;;7.86;49.70;100393.93;87366;278;22555;-75
2024/03/10 06:52:18;;;;;;;27.70;19.40;;;;;;;7.61;50.90;100391.32;87821;267;137325;-76
2024/03/10 06:54:19;;;;;;;27.20;19.90;;;;;;;7.37;51.55;100393.55;87687;271;22561;-74
2024/03/10 06:56:21;;;;;;;25.80;18.80;;;;;;;7.14;52.32;100394.57;86893;271;137348;-76
2024/03/10 06:58:24;;;;;;;27.20;20.30;;;;;;;6.96;52.68;100398.11;87162;267;25185;-76
2024/03/10 07:00:29;;;;;;;27.30;21.60;;;;;;;6.82;53.29;100399.59;87092;271;136039;-77
2024/03/10 07:02:30;;;;;;;28.20;21.20;;;;;;;6.64;53.91;100405.17;87842;267;23562;-75
2024/03/10 07:04:33;;;;;;;28.00;20.90;;;;;;;6.39;55.28;100403.75;86974;278;136211;-75
2024/03/10 07:06:34;;;;;;;34.30;22.60;;;;;;;6.16;56.27;100405.61;87193;267;22563;-77
2024/03/10 07:08:36;;;;;;;29.50;21.10;;;;;;;6.03;56.73;100403.37;87058;267;137029;-81
2024/03/10 07:10:38;;;;;;;27.40;20.30;;;;;;;5.99;57.79;100403.77;87213;274;25133;-78
2024/03/10 07:12:40;;;;;;;28.60;21.80;;;;;;;5.97;57.96;100405.23;87064;267;136110;-73
2024/03/10 07:14:42;;;;;;;28.40;22.50;;;;;;;5.92;58.63;100402.20;88451;267;24013;-82
2024/03/10 07:16:49;;;;;;;26.20;19.70;;;;;;;5.92;59.08;100397.28;87258;271;136039;-81
2024/03/10 07:18:51;;;;;;;28.90;18.70;;;;;;;5.90;59.28;100400.67;87135;263;757461;-81
2024/03/10 07:20:53;;;;;;;31.10;20.20;;;;;;;5.89;59.24;100405.16;86993;263;136580;-78
2024/03/10 07:22:55;;;;;;;23.10;18.20;;;;;;;5.86;59.39;100407.20;87068;271;22956;-77
2024/03/10 07:24:57;;;;;;;26.60;19.20;;;;;;;5.85;59.29;100406.40;86942;275;136264;-75
2024/03/10 07:26:59;;;;;;;28.50;18.90;;;;;;;5.85;59.56;100416.25;86878;271;25259;-77
2024/03/10 07:29:01;;;;;;;25.50;19.00;;;;;;;5.76;60.06;100417.55;87154;274;136165;-77
2024/03/10 07:31:04;;;;;;;24.70;18.00;;;;;;;5.69;60.28;100416.87;89715;274;23014;-78
2024/03/10 07:33:06;;;;;;;29.50;21.30;;;;;;;5.70;60.90;100415.55;87449;271;136115;-76
2024/03/10 07:35:09;;;;;;;27.70;20.10;;;;;;;5.69;60.66;100417.03;87047;278;24154;-78
2024/03/10 07:37:11;;;;;;;24.10;18.80;;;;;;;5.68;60.69;100419.11;88524;271;135814;-76
2024/03/10 07:39:14;;;;;;;24.70;18.50;;;;;;;5.67;61.13;100420.92;87115;271;22843;-79
2024/03/10 07:41:16;;;;;;;25.80;19.90;;;;;;;5.70;61.53;100420.27;87045;279;135859;-77
2024/03/10 07:43:18;;;;;;;30.60;21.20;;;;;;;5.72;61.80;100420.59;87272;271;22565;-78
2024/03/10 07:45:20;;;;;;;27.30;20.60;;;;;;;5.67;62.07;100420.78;86861;268;136453;-77
2024/03/10 07:47:22;;;;;;;25.50;20.30;;;;;;;5.68;62.59;100421.39;86720;271;23743;-76
2024/03/10 07:49:24;;;;;;;29.70;20.70;;;;;;;5.69;62.50;100422.29;86946;267;136425;-80
2024/03/10 07:51:28;;;;;;;28.80;20.10;;;;;;;5.63;62.65;100418.45;86991;267;22757;-80
2024/03/10 07:53:30;;;;;;;26.30;18.50;;;;;;;5.65;62.83;100416.05;87677;266;136304;-76
2024/03/10 07:55:33;;;;;;;29.80;21.20;;;;;;;5.68;62.79;100414.85;87070;274;22509;-77
2024/03/10 07:57:39;;;;;;;23.50;19.00;;;;;;;5.70;62.80;100415.13;88003;262;136712;-79
2024/03/10 07:59:41;;;;;;;28.20;20.40;;;;;;;5.73;63.04;100417.00;88040;269;22577;-76
2024/03/10 08:01:43;;;;;;;25.40;19.10;;;;;;;5.75;62.80;100415.72;86918;268;136033;-76
2024/03/10 08:03:45;;;;;;;26.00;20.10;;;;;;;5.76;63.06;100415.27;87251;274;26398;-76
2024/03/10 08:05:47;;;;;;;34.00;21.60;;;;;;;5.82;63.45;100417.85;87504;274;136298;-77
2024/03/10 08:07:50;;;;;;;32.60;19.40;;;;;;;5.92;63.23;100417.16;87304;280;25499;-76
2024/03/10 08:09:52;;;;;;;25.50;19.70;;;;;;;6.00;62.92;100421.83;87149;272;136900;-77
2024/03/10 08:11:53;;;;;;;26.60;20.30;;;;;;;6.10;62.66;100420.46;87645;276;23635;-77
2024/03/10 08:13:56;;;;;;;27.60;20.90;;;;;;;6.19;62.31;100421.80;87879;271;136545;-77
2024/03/10 08:15:59;;;;;;;30.70;20.00;;;;;;;6.24;62.35;100420.34;89223;267;23139;-75
2024/03/10 08:18:02;;;;;;;29.40;21.20;;;;;;;6.28;62.15;100421.17;88916;273;137464;-75
2024/03/10 08:20:06;;;;;;;26.00;19.10;;;;;;;6.35;62.53;100422.23;88394;271;136619;-77
2024/03/10 08:22:09;;;;;;;24.40;20.00;;;;;;;6.37;62.35;100422.67;87540;271;22559;-77
2024/03/10 08:24:13;;;;;;;24.80;18.60;;;;;;;6.37;62.38;100427.98;87335;279;136218;-76
2024/03/10 08:26:15;;;;;;;26.70;19.50;;;;;;;6.38;62.54;100430.34;87708;266;22860;-80
2024/03/10 08:28:19;;;;;;;25.70;20.10;;;;;;;6.39;61.91;100432.71;87659;274;136935;-77
2024/03/10 08:30:21;;;;;;;24.70;18.70;;;;;;;6.37;61.94;100442.10;87491;274;25134;-79
2024/03/10 08:32:23;;;;;;;23.30;18.60;;;;;;;6.34;62.08;100446.47;87172;271;136625;-79
2024/03/10 08:34:26;;;;;;;26.30;18.90;;;;;;;6.27;62.18;100446.82;88495;271;25241;-76
2024/03/10 08:36:29;;;;;;;27.00;19.20;;;;;;;6.21;62.13;100451.86;88555;274;136255;-77
2024/03/10 08:38:34;;;;;;;25.50;20.30;;;;;;;6.20;62.81;100445.93;88316;278;25212;-75
2024/03/10 08:40:37;;;;;;;24.10;19.20;;;;;;;6.23;62.57;100446.14;88325;271;136404;-78
2024/03/10 08:42:41;;;;;;;23.00;19.50;;;;;;;6.25;62.39;100448.94;87156;269;22748;-79
2024/03/10 08:44:43;;;;;;;26.90;19.80;;;;;;;6.31;62.27;100449.75;87654;271;136062;-77
2024/03/10 08:46:45;;;;;;;25.60;19.80;;;;;;;6.38;62.09;100455.67;86969;271;25198;-75
2024/03/10 08:48:46;;;;;;;25.30;20.50;;;;;;;6.43;61.91;100458.72;87041;270;135918;-77
2024/03/10 08:50:50;;;;;;;25.10;19.10;;;;;;;6.47;61.24;100462.11;87155;278;25418;-78
2024/03/10 08:52:52;;;;;;;33.60;20.40;;;;;;;6.44;60.77;100462.92;87068;261;136274;-80
2024/03/10 08:54:55;;;;;;;27.30;20.00;;;;;;;6.40;60.84;100465.59;87149;267;22642;-76
2024/03/10 08:56:56;;;;;;;27.00;20.30;;;;;;;6.39;60.97;100460.25;86815;279;136295;-78
2024/03/10 08:58:58;;;;;;;24.60;18.90;;;;;;;6.39;61.13;100464.30;87115;278;22563;-77
2024/03/10 09:01:00;;;;;;;24.00;19.10;;;;;;;6.39;61.09;100459.02;86773;269;135987;-74
2024/03/10 09:03:04;;;;;;;24.40;19.30;;;;;;;6.39;61.04;100459.14;87206;268;22523;-79
2024/03/10 09:05:07;;;;;;;23.80;19.10;;;;;;;6.42;61.12;100463.12;87905;273;137182;-78
2024/03/10 09:07:10;;;;;;;25.20;19.20;;;;;;;6.45;61.09;100466.31;88337;267;25092;-71
2024/03/10 09:09:14;;;;;;;26.60;20.60;;;;;;;6.44;60.88;100465.38;87555;280;136045;-78
2024/03/10 09:11:17;;;;;;;22.00;17.70;;;;;;;6.47;61.32;100469.69;87244;271;22913;-77
2024/03/10 09:13:19;;;;;;;28.30;21.60;;;;;;;6.53;61.55;100471.31;87067;274;136204;-79
2024/03/10 09:15:22;;;;;;;30.50;20.00;;;;;;;6.58;61.34;100470.63;88000;271;22662;-76
2024/03/10 09:17:24;;;;;;;26.60;19.60;;;;;;;6.57;61.12;100465.67;86985;271;137562;-79
2024/03/10 09:19:27;;;;;;;30.70;19.80;;;;;;;6.52;61.42;100466.71;88625;271;22583;-77
2024/03/10 09:21:29;;;;;;;22.70;19.50;;;;;;;6.50;61.67;100464.21;88008;267;136279;-79
2024/03/10 09:23:30;;;;;;;27.20;19.40;;;;;;;6.54;61.94;100466.42;87166;267;22779;-79
2024/03/10 09:25:34;;;;;;;23.80;19.30;;;;;;;6.60;61.82;100464.55;87970;270;136068;-74
2024/03/10 09:27:43;;;;;;;25.10;18.70;;;;;;;6.67;61.88;100463.66;87887;263;24516;-77
2024/03/10 09:29:46;;;;;;;26.10;19.80;;;;;;;6.75;62.06;100461.15;86897;276;136168;-77
2024/03/10 09:31:50;;;;;;;26.90;20.00;;;;;;;6.84;61.98;100458.38;87568;274;27041;-73
2024/03/10 09:33:52;;;;;;;24.70;19.30;;;;;;;6.92;61.45;100455.69;86864;271;135845;-79
2024/03/10 09:35:58;;;;;;;26.00;19.00;;;;;;;6.97;61.07;100457.25;87852;274;24095;-75
2024/03/10 09:38:06;;;;;;;24.60;19.10;;;;;;;7.00;60.93;100453.02;87008;269;137262;-77
2024/03/10 09:40:09;;;;;;;25.40;18.90;;;;;;;7.04;60.76;100454.68;86965;269;137758;-78
2024/03/10 09:42:14;;;;;;;26.80;20.20;;;;;;;7.07;60.78;100453.00;87704;267;22760;-77
2024/03/10 09:44:22;;;;;;;23.80;19.50;;;;;;;7.09;60.68;100454.92;86776;268;136384;-75
2024/03/10 09:46:26;;;;;;;23.20;17.20;;;;;;;7.11;60.65;100453.85;88354;266;22528;-75
2024/03/10 09:48:29;;;;;;;25.60;19.80;;;;;;;7.15;60.88;100447.92;87155;278;137373;-76
2024/03/10 09:50:32;;;;;;;19.70;17.40;;;;;;;7.19;60.53;100449.34;87140;271;24199;-75